Time;durP1;ratioP1;P1;durP2;ratioP2;P2;SDS_P1;SDS_P2;PMS_P1;PMS_P2;Temp;Humidity;BMP_temperature;BMP_pressure;BME280_temperature;BME280_humidity;BME280_pressure;Samples;Min_cycle;Max_cycle;Signal;HPM_P1;HPM_P2
2023/01/31 00:00:20;;;;;;;19.58;3.45;;;2.50;99.90;;;;;;5021364;28;20041;-79
2023/01/31 00:02:46;;;;;;;25.50;3.88;;;2.50;99.90;;;;;;5015555;28;20072;-78
2023/01/31 00:05:11;;;;;;;27.02;4.30;;;2.50;99.90;;;;;;4996198;28;20102;-79
2023/01/31 00:07:37;;;;;;;25.73;4.05;;;2.50;99.90;;;;;;5016331;28;20108;-79
2023/01/31 00:10:03;;;;;;;24.55;3.20;;;2.40;99.90;;;;;;5001980;28;20381;-79
2023/01/31 00:12:28;;;;;;;24.48;3.97;;;2.40;99.90;;;;;;5019523;28;20042;-79
2023/01/31 00:14:54;;;;;;;22.35;3.10;;;2.40;99.90;;;;;;5017742;28;20041;-79
2023/01/31 00:17:20;;;;;;;28.38;3.88;;;2.30;99.90;;;;;;5014246;28;20070;-78
2023/01/31 00:19:45;;;;;;;19.92;3.10;;;2.40;99.90;;;;;;5015109;28;20477;-78
2023/01/31 00:22:11;;;;;;;26.60;3.67;;;2.30;99.90;;;;;;4992532;28;20080;-78
2023/01/31 00:24:36;;;;;;;23.45;3.65;;;2.30;99.90;;;;;;5008356;28;20117;-78
2023/01/31 00:27:02;;;;;;;26.30;3.83;;;2.30;99.90;;;;;;5014087;28;20393;-78
2023/01/31 00:29:28;;;;;;;28.90;3.83;;;2.30;99.90;;;;;;4996916;28;20045;-78
2023/01/31 00:31:54;;;;;;;21.77;3.58;;;2.30;99.90;;;;;;5012136;28;20137;-80
2023/01/31 00:34:20;;;;;;;20.10;3.33;;;2.40;99.90;;;;;;5009849;28;21231;-79
2023/01/31 00:36:45;;;;;;;22.73;2.92;;;2.30;99.90;;;;;;5010960;28;20074;-79
2023/01/31 00:39:11;;;;;;;26.77;3.67;;;2.30;99.90;;;;;;5010368;28;20048;-78
2023/01/31 00:41:37;;;;;;;25.08;4.25;;;2.30;99.90;;;;;;5007420;28;20041;-78
2023/01/31 00:44:04;;;;;;;27.67;4.20;;;2.40;99.90;;;;;;4990194;28;20042;-78
2023/01/31 00:46:30;;;;;;;26.63;3.92;;;2.30;99.90;;;;;;5001911;28;20112;-77
2023/01/31 00:48:56;;;;;;;23.23;3.20;;;2.40;99.90;;;;;;5010545;28;20042;-78
2023/01/31 00:51:23;;;;;;;25.92;3.95;;;2.40;99.90;;;;;;5017906;28;20457;-77
2023/01/31 00:53:49;;;;;;;25.30;3.28;;;2.40;99.90;;;;;;5011270;28;20042;-78
2023/01/31 00:56:17;;;;;;;23.88;3.95;;;2.40;99.90;;;;;;5014229;28;20105;-78
2023/01/31 00:58:43;;;;;;;22.52;3.08;;;2.50;99.90;;;;;;4996806;28;21604;-78
2023/01/31 01:01:12;;;;;;;28.30;3.63;;;2.40;99.90;;;;;;5013030;28;20488;-78
2023/01/31 01:03:38;;;;;;;21.20;3.38;;;2.40;99.90;;;;;;5014523;28;20063;-79
2023/01/31 01:06:05;;;;;;;24.77;3.25;;;2.40;99.90;;;;;;4989800;28;20045;-78
2023/01/31 01:08:31;;;;;;;18.40;2.97;;;2.40;99.90;;;;;;4992227;28;20049;-78
2023/01/31 01:11:04;;;;;;;19.23;2.90;;;2.40;99.90;;;;;;5006899;28;20058;-78
2023/01/31 01:13:30;;;;;;;22.73;3.17;;;2.40;99.90;;;;;;4988504;28;20188;-78
2023/01/31 01:15:55;;;;;;;19.55;3.13;;;2.30;99.90;;;;;;5009564;28;20106;-78
2023/01/31 01:18:21;;;;;;;25.92;3.47;;;2.40;99.90;;;;;;5008785;28;20045;-78
2023/01/31 01:20:46;;;;;;;19.92;2.95;;;2.40;99.90;;;;;;5007348;28;20148;-78
2023/01/31 01:23:12;;;;;;;20.15;2.80;;;2.40;99.90;;;;;;4975898;28;20053;-78
2023/01/31 01:25:44;;;;;;;21.13;3.17;;;2.40;99.90;;;;;;5007327;28;20038;-78
2023/01/31 01:28:10;;;;;;;19.88;3.50;;;2.30;99.90;;;;;;5010071;28;20040;-79
2023/01/31 01:30:37;;;;;;;19.98;3.35;;;2.40;99.90;;;;;;4989960;28;20033;-79
2023/01/31 01:33:03;;;;;;;16.17;2.60;;;2.40;99.90;;;;;;5014163;28;20044;-79
2023/01/31 01:35:30;;;;;;;21.90;2.50;;;2.40;99.90;;;;;;5004338;28;20125;-78
2023/01/31 01:37:55;;;;;;;18.10;2.53;;;2.30;99.90;;;;;;5014547;28;20042;-77
2023/01/31 01:40:21;;;;;;;23.13;3.53;;;2.40;99.90;;;;;;5010800;28;20041;-78
2023/01/31 01:42:46;;;;;;;22.85;2.95;;;2.40;99.90;;;;;;5009577;28;20078;-78
2023/01/31 01:45:15;;;;;;;13.40;2.70;;;2.40;99.90;;;;;;5010144;28;20033;-78
2023/01/31 01:47:50;;;;;;;19.58;3.80;;;2.40;99.90;;;;;;5007169;28;20042;-77
2023/01/31 01:50:28;;;;;;;17.77;2.90;;;2.40;99.90;;;;;;5002973;28;20057;-78
2023/01/31 01:52:54;;;;;;;;;;;2.50;99.90;;;;;;5008384;28;20122;-78
2023/01/31 01:55:31;;;;;;;14.15;3.10;;;2.60;99.90;;;;;;5014501;28;20384;-78
2023/01/31 01:58:05;;;;;;;22.60;3.20;;;2.60;99.90;;;;;;5008021;28;20060;-78
2023/01/31 02:00:32;;;;;;;17.80;2.13;;;2.60;99.90;;;;;;5005227;28;20058;-78
2023/01/31 02:03:00;;;;;;;19.42;2.45;;;2.50;99.90;;;;;;5003453;28;20034;-78
2023/01/31 02:05:34;;;;;;;;;;;2.50;99.90;;;;;;5005383;28;20042;-78
2023/01/31 02:08:01;;;;;;;18.77;2.83;;;2.40;99.90;;;;;;5008163;28;19921;-78
2023/01/31 02:10:45;;;;;;;18.75;2.88;;;2.40;99.90;;;;;;5005787;28;20129;-78
2023/01/31 02:13:11;;;;;;;12.10;2.08;;;2.30;99.90;;;;;;5000553;28;20061;-78
2023/01/31 02:15:37;;;;;;;20.83;2.75;;;2.30;99.90;;;;;;5006312;28;20034;-78
2023/01/31 02:18:03;;;;;;;18.35;2.75;;;2.20;99.90;;;;;;4992651;28;20129;-78
2023/01/31 02:21:07;;;;;;;19.10;2.60;;;2.30;99.90;;;;;;4974058;28;20420;-78
2023/01/31 02:23:51;;;;;;;21.52;2.80;;;2.20;99.90;;;;;;5009871;28;20060;-79
2023/01/31 02:26:59;;;;;;;21.23;2.92;;;2.30;99.90;;;;;;5016630;28;20045;-78
2023/01/31 02:29:43;;;;;;;;;;;2.30;99.90;;;;;;4936885;29;20369;-79
2023/01/31 02:32:32;;;;;;;16.13;2.30;;;2.30;99.90;;;;;;4934295;29;19927;-79
2023/01/31 02:35:31;;;;;;;25.33;3.20;;;2.30;99.90;;;;;;4932277;29;20052;-78
2023/01/31 02:38:25;;;;;;;14.07;2.60;;;2.30;99.90;;;;;;4930199;29;20567;-79
2023/01/31 02:41:22;;;;;;;11.07;2.00;;;2.30;99.90;;;;;;4930363;29;20467;-79
2023/01/31 02:47:01;;;;;;;16.77;2.70;;;2.50;99.90;;;;;;4942556;29;20051;-78
2023/01/31 02:49:39;;;;;;;16.02;2.35;;;2.50;99.90;;;;;;4931682;29;20091;-78
2023/01/31 02:52:15;;;;;;;20.42;3.13;;;2.60;99.90;;;;;;4931411;29;20124;-78
2023/01/31 02:57:34;;;;;;;17.90;3.55;;;2.70;99.90;;;;;;4933616;29;20055;-78
2023/01/31 02:59:59;;;;;;;18.55;2.80;;;2.80;99.90;;;;;;4933284;29;20070;-78
2023/01/31 03:02:26;;;;;;;14.57;2.70;;;2.80;99.90;;;;;;4934773;29;20658;-78
2023/01/31 03:04:52;;;;;;;24.77;3.33;;;2.90;99.90;;;;;;4934802;29;20564;-79
2023/01/31 03:07:28;;;;;;;21.35;2.85;;;2.90;99.90;;;;;;4982263;28;20173;-79
2023/01/31 03:10:19;;;;;;;15.10;3.15;;;2.90;99.90;;;;;;5007619;28;20065;-79
2023/01/31 03:12:51;;;;;;;16.50;2.97;;;2.90;99.90;;;;;;5008852;28;20451;-79
2023/01/31 03:19:12;;;;;;;17.23;3.08;;;3.00;99.90;;;;;;4988494;28;20128;-79
2023/01/31 03:21:46;;;;;;;19.02;2.83;;;3.00;99.90;;;;;;5012066;28;20038;-79
2023/01/31 03:24:13;;;;;;;20.58;3.20;;;3.00;99.90;;;;;;5012488;28;20077;-79
2023/01/31 03:26:40;;;;;;;13.70;2.42;;;3.00;99.90;;;;;;5012598;28;20057;-79
2023/01/31 03:29:07;;;;;;;18.38;2.83;;;3.00;99.90;;;;;;5000337;28;20109;-79
2023/01/31 03:31:38;;;;;;;20.27;3.38;;;3.00;99.90;;;;;;5008175;28;20048;-79
2023/01/31 03:34:07;;;;;;;14.38;3.28;;;3.00;99.90;;;;;;5005322;28;20508;-78
2023/01/31 03:36:41;;;;;;;16.17;3.05;;;3.00;99.90;;;;;;5007434;28;20041;-78
2023/01/31 03:39:21;;;;;;;18.75;3.35;;;3.00;99.90;;;;;;5009279;28;20137;-78
2023/01/31 03:41:55;;;;;;;17.98;3.85;;;3.10;99.90;;;;;;5009359;28;20160;-78
2023/01/31 03:44:32;;;;;;;19.80;3.35;;;3.10;99.90;;;;;;4995073;28;20397;-78
2023/01/31 03:47:13;;;;;;;20.10;3.35;;;3.10;99.90;;;;;;5009169;28;20050;-78
2023/01/31 03:49:41;;;;;;;24.95;3.20;;;3.10;99.90;;;;;;5016054;28;20103;-78
2023/01/31 03:52:08;;;;;;;17.73;3.03;;;3.10;99.90;;;;;;4993616;28;20076;-78
2023/01/31 03:54:40;;;;;;;20.10;3.50;;;3.10;99.90;;;;;;4996236;28;20172;-78
2023/01/31 03:57:16;;;;;;;19.05;2.75;;;3.10;99.90;;;;;;5011310;28;20427;-78
2023/01/31 03:59:46;;;;;;;17.67;3.22;;;3.10;99.90;;;;;;4995329;28;20046;-79
2023/01/31 04:02:15;;;;;;;18.60;3.47;;;3.20;99.90;;;;;;5011742;28;20042;-78
2023/01/31 04:04:53;;;;;;;17.33;3.42;;;3.20;99.90;;;;;;5003943;28;20366;-78
2023/01/31 04:07:19;;;;;;;17.90;3.47;;;3.20;99.90;;;;;;5003433;28;20532;-78
2023/01/31 04:09:45;;;;;;;19.92;3.50;;;3.20;99.90;;;;;;5004897;28;20050;-78
2023/01/31 04:12:13;;;;;;;13.75;2.85;;;3.20;99.90;;;;;;5005117;28;20046;-78
2023/01/31 04:14:39;;;;;;;;;;;3.20;99.90;;;;;;5007556;28;20435;-78
2023/01/31 04:17:04;;;;;;;19.63;3.47;;;3.30;99.90;;;;;;5005939;28;21317;-78
2023/01/31 04:19:30;;;;;;;19.70;3.78;;;3.30;99.90;;;;;;5003822;28;20456;-78
2023/01/31 04:21:55;;;;;;;13.48;2.97;;;3.30;99.90;;;;;;5009140;28;20112;-78
2023/01/31 04:24:21;;;;;;;18.65;2.80;;;3.30;99.90;;;;;;5006233;28;20554;-78
2023/01/31 04:26:47;;;;;;;21.30;3.13;;;3.30;99.90;;;;;;4987002;28;20507;-78
2023/01/31 04:29:13;;;;;;;26.02;4.15;;;3.30;99.90;;;;;;5008406;28;20130;-79
2023/01/31 04:31:40;;;;;;;14.43;2.70;;;3.30;99.90;;;;;;5009620;28;20045;-79
2023/01/31 04:34:06;;;;;;;21.55;3.45;;;3.40;99.90;;;;;;5010547;28;20081;-78
2023/01/31 04:36:31;;;;;;;23.80;3.78;;;3.40;99.90;;;;;;5011711;28;20054;-78
2023/01/31 04:38:57;;;;;;;21.80;3.58;;;3.40;99.90;;;;;;5010729;28;20144;-78
2023/01/31 04:41:22;;;;;;;19.83;4.30;;;3.50;99.90;;;;;;5008601;28;20073;-78
2023/01/31 04:43:48;;;;;;;23.85;3.92;;;3.50;99.90;;;;;;5012884;28;20038;-78
2023/01/31 04:46:14;;;;;;;20.67;4.45;;;3.50;99.90;;;;;;5013175;28;20045;-78
2023/01/31 04:48:40;;;;;;;21.63;3.95;;;3.60;99.90;;;;;;5011468;28;20122;-78
2023/01/31 04:51:06;;;;;;;23.10;4.20;;;3.70;99.90;;;;;;4993363;28;20096;-78
2023/01/31 04:53:31;;;;;;;23.52;4.70;;;3.70;99.90;;;;;;5005761;28;20036;-79
2023/01/31 04:55:57;;;;;;;19.48;4.13;;;3.70;99.90;;;;;;4979470;28;20504;-79
2023/01/31 04:58:23;;;;;;;25.50;4.50;;;3.80;99.90;;;;;;5013157;28;20045;-78
2023/01/31 05:00:48;;;;;;;22.45;4.25;;;3.80;99.90;;;;;;5000193;28;20042;-79
2023/01/31 05:03:14;;;;;;;23.83;4.45;;;3.80;99.90;;;;;;4993361;28;20042;-79
2023/01/31 05:05:40;;;;;;;24.98;4.20;;;3.90;99.90;;;;;;4992039;28;20385;-79
2023/01/31 05:08:06;;;;;;;21.40;4.05;;;3.90;99.90;;;;;;5012948;28;20056;-79
2023/01/31 05:10:33;;;;;;;24.02;4.25;;;4.00;99.90;;;;;;5010251;28;20060;-79
2023/01/31 05:12:59;;;;;;;19.60;4.40;;;4.00;99.90;;;;;;4991253;28;20038;-79
2023/01/31 05:15:25;;;;;;;27.85;5.18;;;4.00;99.90;;;;;;4990321;28;20052;-78
2023/01/31 05:18:01;;;;;;;22.25;4.88;;;4.10;99.90;;;;;;5003870;28;20563;-77
2023/01/31 05:20:33;;;;;;;22.58;5.00;;;4.10;99.90;;;;;;4985028;28;20538;-78
2023/01/31 05:22:59;;;;;;;27.35;6.05;;;4.10;99.90;;;;;;5012115;28;20053;-78
2023/01/31 05:25:25;;;;;;;30.67;6.00;;;4.10;99.90;;;;;;4992944;28;20552;-79
2023/01/31 05:27:52;;;;;;;27.80;5.78;;;4.10;99.90;;;;;;5004694;28;20041;-78
2023/01/31 05:30:18;;;;;;;30.95;6.20;;;4.20;99.90;;;;;;5005124;28;20041;-78
2023/01/31 05:32:45;;;;;;;34.20;5.78;;;4.20;99.90;;;;;;5007000;28;20184;-79
2023/01/31 05:35:11;;;;;;;29.80;5.88;;;4.20;99.90;;;;;;5008111;28;20038;-79
2023/01/31 05:37:41;;;;;;;28.05;6.45;;;4.20;99.90;;;;;;5009814;28;20138;-78
2023/01/31 05:40:09;;;;;;;21.42;5.53;;;4.20;99.90;;;;;;5010851;28;20038;-79
2023/01/31 05:42:34;;;;;;;22.45;5.47;;;4.20;99.90;;;;;;5010536;28;20046;-79
2023/01/31 05:45:00;;;;;;;31.38;6.63;;;4.20;99.90;;;;;;5011114;28;20475;-79
2023/01/31 05:47:26;;;;;;;33.00;6.72;;;4.20;99.90;;;;;;4989584;28;20532;-79
2023/01/31 05:49:51;;;;;;;29.10;6.97;;;4.20;99.90;;;;;;5007458;28;20080;-79
2023/01/31 05:52:17;;;;;;;26.48;6.75;;;4.20;99.90;;;;;;5005787;28;20042;-79
2023/01/31 05:54:42;;;;;;;27.45;6.88;;;4.20;99.90;;;;;;5003777;28;20046;-79
2023/01/31 05:57:08;;;;;;;28.98;7.40;;;4.20;99.90;;;;;;4989926;28;20117;-79
2023/01/31 05:59:33;;;;;;;30.98;7.30;;;4.30;99.90;;;;;;5008330;28;20527;-79
2023/01/31 06:01:59;;;;;;;32.42;8.20;;;4.30;99.90;;;;;;5010273;28;20046;-79
2023/01/31 06:04:25;;;;;;;34.45;7.82;;;4.40;99.90;;;;;;5007058;28;20117;-79
2023/01/31 06:06:50;;;;;;;30.73;9.02;;;4.40;99.90;;;;;;5007100;28;20389;-78
2023/01/31 06:09:16;;;;;;;31.58;8.07;;;4.40;99.90;;;;;;5007474;28;20065;-78
2023/01/31 06:11:41;;;;;;;30.52;8.07;;;4.50;99.90;;;;;;5004142;28;20042;-78
2023/01/31 06:14:08;;;;;;;37.90;10.10;;;4.60;99.90;;;;;;4987044;28;20064;-78
2023/01/31 06:16:33;;;;;;;26.92;9.43;;;4.60;99.90;;;;;;5005928;28;20145;-78
2023/01/31 06:18:59;;;;;;;35.95;9.68;;;4.70;99.90;;;;;;5008027;28;20141;-79
2023/01/31 06:21:25;;;;;;;35.35;9.57;;;4.70;99.90;;;;;;5011626;28;20034;-79
2023/01/31 06:23:50;;;;;;;33.97;10.23;;;4.70;99.90;;;;;;5012384;28;20030;-79
2023/01/31 06:26:16;;;;;;;38.42;10.48;;;4.80;99.90;;;;;;5010142;28;20046;-78
2023/01/31 06:28:41;;;;;;;31.25;9.32;;;4.80;99.90;;;;;;4991144;28;20145;-78
2023/01/31 06:31:08;;;;;;;31.65;9.32;;;4.80;99.90;;;;;;4991700;28;20049;-78
2023/01/31 06:33:34;;;;;;;31.17;9.05;;;4.90;99.90;;;;;;5002713;28;20045;-78
2023/01/31 06:36:00;;;;;;;29.48;9.20;;;5.00;99.90;;;;;;4999894;28;20046;-78
2023/01/31 06:38:27;;;;;;;30.67;9.40;;;5.00;99.90;;;;;;5005318;28;20493;-78
2023/01/31 06:40:53;;;;;;;35.65;9.50;;;5.00;99.90;;;;;;5001522;28;20073;-78
2023/01/31 06:43:18;;;;;;;34.85;10.32;;;5.00;99.90;;;;;;5002497;28;20192;-78
2023/01/31 06:45:44;;;;;;;32.80;9.57;;;5.10;99.90;;;;;;5009319;28;20378;-78
2023/01/31 06:48:10;;;;;;;28.15;9.32;;;5.00;99.90;;;;;;5003197;28;20106;-78
2023/01/31 06:50:36;;;;;;;34.22;9.55;;;5.10;99.90;;;;;;5005558;28;20471;-78
2023/01/31 06:53:02;;;;;;;35.65;9.90;;;5.10;99.90;;;;;;4989034;28;20034;-78
2023/01/31 06:55:28;;;;;;;35.30;8.85;;;5.10;99.90;;;;;;5008553;28;20068;-78
2023/01/31 06:57:54;;;;;;;29.27;8.73;;;5.10;99.90;;;;;;5006869;28;20049;-78
2023/01/31 07:00:23;;;;;;;29.70;8.60;;;5.20;99.90;;;;;;5007329;28;20080;-77
2023/01/31 07:02:49;;;;;;;31.00;8.68;;;5.10;99.90;;;;;;5007353;28;20073;-78
2023/01/31 07:05:15;;;;;;;31.05;9.35;;;5.20;99.90;;;;;;5010247;28;20053;-77
2023/01/31 07:07:41;;;;;;;35.20;9.27;;;5.20;99.90;;;;;;5012897;28;20041;-78
2023/01/31 07:10:07;;;;;;;32.83;7.93;;;5.20;99.90;;;;;;4991632;28;20085;-78
2023/01/31 07:12:32;;;;;;;27.30;7.13;;;5.20;99.90;;;;;;4991020;28;20079;-77
2023/01/31 07:14:58;;;;;;;29.27;7.57;;;5.30;99.90;;;;;;5001613;28;20073;-78
2023/01/31 07:17:24;;;;;;;30.73;8.38;;;5.30;99.90;;;;;;5006996;28;20042;-78
2023/01/31 07:19:49;;;;;;;28.00;6.90;;;5.30;99.90;;;;;;5010503;28;20045;-79
2023/01/31 07:22:15;;;;;;;31.75;8.13;;;5.30;99.90;;;;;;5005124;28;20504;-79
2023/01/31 07:24:41;;;;;;;26.90;6.65;;;5.40;99.90;;;;;;4989841;28;20042;-79
2023/01/31 07:27:07;;;;;;;28.38;6.80;;;5.40;99.90;;;;;;5013228;28;20046;-80
2023/01/31 07:29:32;;;;;;;29.83;6.72;;;5.40;99.90;;;;;;4999298;28;20044;-80
2023/01/31 07:31:58;;;;;;;22.95;6.85;;;5.40;99.90;;;;;;5012469;28;20045;-79
2023/01/31 07:34:23;;;;;;;23.40;6.57;;;5.40;99.90;;;;;;5001321;28;20042;-77
2023/01/31 07:36:50;;;;;;;21.85;6.90;;;5.50;99.90;;;;;;4980127;28;20042;-77
2023/01/31 07:39:16;;;;;;;28.83;7.00;;;5.50;99.90;;;;;;4996088;28;20136;-76
2023/01/31 07:41:42;;;;;;;20.65;6.38;;;5.50;99.90;;;;;;4999269;28;20136;-75
2023/01/31 07:44:10;;;;;;;28.73;6.70;;;5.50;99.90;;;;;;5001124;28;20143;-76
2023/01/31 07:46:36;;;;;;;26.35;6.40;;;5.50;99.90;;;;;;4998073;28;20038;-76
2023/01/31 07:49:02;;;;;;;24.23;6.05;;;5.60;99.90;;;;;;5001623;28;20045;-76
2023/01/31 07:51:28;;;;;;;27.08;6.18;;;5.60;99.90;;;;;;4982683;28;20046;-78
2023/01/31 07:53:55;;;;;;;22.80;6.43;;;5.60;99.90;;;;;;5003183;28;20061;-76
2023/01/31 07:56:21;;;;;;;30.07;6.83;;;5.60;99.90;;;;;;5004967;28;20073;-76
2023/01/31 07:58:48;;;;;;;29.80;5.88;;;5.60;99.90;;;;;;4988336;28;20127;-77
2023/01/31 08:04:01;;;;;;;28.60;5.95;;;5.70;99.90;;;;;;5005327;28;20054;-78
2023/01/31 08:06:30;;;;;;;25.23;6.53;;;5.80;99.90;;;;;;5008655;28;20041;-78
2023/01/31 08:08:57;;;;;;;27.08;6.47;;;5.70;99.90;;;;;;4987403;28;20046;-78
2023/01/31 08:11:23;;;;;;;24.10;6.32;;;5.80;99.90;;;;;;5008932;28;20094;-79
2023/01/31 08:13:48;;;;;;;26.55;6.35;;;5.80;99.90;;;;;;5008472;28;20130;-78
2023/01/31 08:16:14;;;;;;;29.38;7.28;;;5.80;99.90;;;;;;4974374;28;20042;-78
2023/01/31 08:18:40;;;;;;;25.20;5.40;;;5.80;99.90;;;;;;5003145;28;20034;-78
2023/01/31 08:21:06;;;;;;;23.75;7.18;;;5.80;99.90;;;;;;4987817;28;20104;-78
2023/01/31 08:23:33;;;;;;;25.33;6.43;;;5.80;99.90;;;;;;5010127;28;20469;-78
2023/01/31 08:26:04;;;;;;;25.40;6.82;;;5.90;99.90;;;;;;5013482;28;20084;-78
2023/01/31 08:28:30;;;;;;;22.63;6.13;;;5.90;99.90;;;;;;4998912;28;20254;-76
2023/01/31 08:30:56;;;;;;;24.13;6.25;;;5.80;99.90;;;;;;5009369;28;20042;-78
2023/01/31 08:33:22;;;;;;;26.35;5.90;;;5.90;99.90;;;;;;5014814;28;20061;-78
2023/01/31 08:35:48;;;;;;;19.92;6.05;;;5.90;99.90;;;;;;5015139;28;20042;-78
2023/01/31 08:38:14;;;;;;;26.55;6.50;;;5.90;99.90;;;;;;5013854;28;20042;-78
2023/01/31 08:40:39;;;;;;;21.20;5.50;;;5.80;99.90;;;;;;4980704;28;20042;-78
2023/01/31 08:43:05;;;;;;;21.00;5.82;;;5.90;99.90;;;;;;4994960;28;20077;-78
2023/01/31 08:45:32;;;;;;;21.83;5.75;;;5.90;99.90;;;;;;4991309;28;20112;-78
2023/01/31 08:47:59;;;;;;;21.65;6.00;;;5.90;99.90;;;;;;5005858;28;20050;-78
2023/01/31 08:50:26;;;;;;;22.47;5.63;;;5.90;99.90;;;;;;5012161;28;20068;-78
2023/01/31 08:52:55;;;;;;;25.23;6.93;;;6.00;99.90;;;;;;5016977;28;20511;-78
2023/01/31 08:55:22;;;;;;;33.83;6.78;;;6.00;99.90;;;;;;4998311;28;20033;-78
2023/01/31 08:57:49;;;;;;;22.35;6.05;;;6.00;99.90;;;;;;5011831;28;20042;-78
2023/01/31 09:00:16;;;;;;;21.23;6.32;;;6.10;99.90;;;;;;5009843;28;20046;-78
2023/01/31 09:02:42;;;;;;;24.73;6.97;;;6.10;99.90;;;;;;4999139;28;20051;-77
2023/01/31 09:05:08;;;;;;;24.30;6.88;;;6.20;99.90;;;;;;5006127;28;20042;-77
2023/01/31 09:07:34;;;;;;;17.70;5.68;;;6.20;99.90;;;;;;4991413;28;20413;-77
2023/01/31 09:10:00;;;;;;;21.60;7.03;;;6.20;99.90;;;;;;4999871;28;20059;-79
2023/01/31 09:12:25;;;;;;;21.00;5.70;;;6.20;99.90;;;;;;5014099;28;20058;-77
2023/01/31 09:14:51;;;;;;;15.85;5.65;;;6.20;99.90;;;;;;5007870;28;20046;-77
2023/01/31 09:17:18;;;;;;;18.88;5.75;;;6.20;99.90;;;;;;4986694;28;20053;-77
2023/01/31 09:19:43;;;;;;;20.83;6.13;;;6.20;99.90;;;;;;5015616;28;20441;-78
2023/01/31 09:22:09;;;;;;;15.40;5.22;;;6.20;99.90;;;;;;5009257;28;20121;-79
2023/01/31 09:24:35;;;;;;;22.20;5.90;;;6.20;99.90;;;;;;5010567;28;20489;-79
2023/01/31 09:27:01;;;;;;;13.57;5.60;;;;;;;;;;5017800;28;20053;-79
2023/01/31 09:29:28;;;;;;;19.52;5.07;;;6.30;99.90;;;;;;5013393;28;20421;-79
2023/01/31 09:31:54;;;;;;;15.80;4.45;;;6.30;99.90;;;;;;4998918;28;20046;-79
2023/01/31 09:34:21;;;;;;;18.20;5.00;;;6.30;99.90;;;;;;5012587;28;20556;-79
2023/01/31 09:36:47;;;;;;;16.30;4.50;;;6.40;99.90;;;;;;4992693;28;20054;-79
2023/01/31 09:39:12;;;;;;;17.77;5.13;;;6.40;99.90;;;;;;5012358;28;20042;-79
2023/01/31 09:41:46;;;;;;;22.38;4.97;;;6.50;99.90;;;;;;4992859;28;20081;-79
2023/01/31 09:44:40;;;;;;;18.50;4.45;;;6.50;99.90;;;;;;5009653;28;20057;-79
2023/01/31 09:47:21;;;;;;;18.55;4.15;;;6.60;99.90;;;;;;4999355;28;20085;-79
2023/01/31 09:50:01;;;;;;;20.73;4.00;;;6.60;99.90;;;;;;5010574;28;20044;-79
2023/01/31 09:52:27;;;;;;;16.58;4.35;;;6.70;99.90;;;;;;5011027;28;20496;-79
2023/01/31 09:54:54;;;;;;;13.98;3.67;;;6.70;99.90;;;;;;5010256;28;20130;-78
2023/01/31 09:57:46;;;;;;;17.20;4.63;;;6.70;99.90;;;;;;4978274;28;20103;-78
2023/01/31 10:00:20;;;;;;;18.98;4.50;;;6.70;99.90;;;;;;4996065;28;20033;-78
2023/01/31 10:03:17;;;;;;;20.23;4.57;;;6.70;99.90;;;;;;4991515;28;20137;-78
2023/01/31 10:05:55;;;;;;;18.08;4.80;;;6.80;99.90;;;;;;5009595;28;20050;-78
2023/01/31 10:08:46;;;;;;;19.65;5.13;;;6.90;99.90;;;;;;5006515;28;20050;-76
2023/01/31 10:11:34;;;;;;;14.18;3.90;;;6.90;99.90;;;;;;4995403;28;20046;-78
2023/01/31 10:14:18;;;;;;;15.20;4.20;;;;;;;;;;4950306;28;20510;-79
2023/01/31 10:17:09;;;;;;;18.58;4.10;;;7.00;99.90;;;;;;5010019;28;20042;-78
2023/01/31 10:19:59;;;;;;;18.73;4.30;;;7.00;99.90;;;;;;5003595;28;20400;-78
2023/01/31 10:22:47;;;;;;;17.50;3.85;;;7.00;99.90;;;;;;5004668;28;20046;-78
2023/01/31 10:25:54;;;;;;;16.35;3.65;;;7.00;99.90;;;;;;5004675;28;20053;-79
2023/01/31 10:28:33;;;;;;;;;;;7.00;99.90;;;;;;5008053;28;20046;-78
2023/01/31 10:31:22;;;;;;;19.02;4.32;;;7.10;99.90;;;;;;4987313;28;19984;-78
2023/01/31 10:34:33;;;;;;;17.85;4.25;;;7.10;99.90;;;;;;5003202;28;20046;-78
2023/01/31 10:37:15;;;;;;;15.55;3.65;;;7.10;99.90;;;;;;4986742;28;20050;-78
2023/01/31 10:39:53;;;;;;;19.50;3.78;;;7.20;99.90;;;;;;5004404;28;20429;-78
2023/01/31 10:42:34;;;;;;;18.63;5.00;;;7.10;99.90;;;;;;5001221;28;20034;-78
2023/01/31 10:45:18;;;;;;;18.13;4.28;;;7.20;99.90;;;;;;5004695;28;20655;-78
2023/01/31 10:48:00;;;;;;;15.80;4.22;;;7.10;99.90;;;;;;5002063;28;20045;-79
2023/01/31 10:50:29;;;;;;;16.17;3.63;;;7.20;99.90;;;;;;5003451;28;20034;-78
2023/01/31 10:53:25;;;;;;;17.10;3.72;;;7.10;99.90;;;;;;4998145;28;20400;-78
2023/01/31 10:56:18;;;;;;;21.50;4.18;;;7.10;99.90;;;;;;5002007;28;20178;-77
2023/01/31 10:58:45;;;;;;;17.33;3.47;;;7.10;99.90;;;;;;5002644;28;20129;-78
2023/01/31 11:01:13;;;;;;;21.60;4.47;;;7.10;99.90;;;;;;5001790;28;20092;-78
2023/01/31 11:03:50;;;;;;;13.10;3.83;;;7.10;99.90;;;;;;4983369;28;20049;-78
2023/01/31 11:06:16;;;;;;;14.90;3.70;;;7.10;99.90;;;;;;4985347;28;20168;-78
2023/01/31 11:08:47;;;;;;;17.05;4.13;;;7.10;99.90;;;;;;4983487;28;20043;-78
2023/01/31 11:11:18;;;;;;;22.73;4.35;;;7.10;99.90;;;;;;5004909;28;20120;-78
2023/01/31 11:13:55;;;;;;;16.67;3.92;;;7.10;99.90;;;;;;5002713;28;20087;-78
2023/01/31 11:16:22;;;;;;;17.92;4.20;;;7.00;99.90;;;;;;4985910;28;20068;-78
2023/01/31 11:18:50;;;;;;;22.58;4.40;;;7.00;99.90;;;;;;4985352;28;20041;-78
2023/01/31 11:21:36;;;;;;;19.73;5.03;;;6.90;99.90;;;;;;5002993;28;20080;-78
2023/01/31 11:24:14;;;;;;;19.35;5.47;;;6.90;99.90;;;;;;5007173;28;20092;-78
2023/01/31 11:26:43;;;;;;;;;;;6.90;99.90;;;;;;5005153;28;20049;-78
2023/01/31 11:29:26;;;;;;;20.90;5.35;;;6.90;99.90;;;;;;5003030;28;20515;-78
2023/01/31 11:31:52;;;;;;;16.90;5.18;;;6.80;99.90;;;;;;5005818;28;20073;-78
2023/01/31 11:34:28;;;;;;;18.40;5.35;;;6.80;99.90;;;;;;4981076;28;20184;-78
2023/01/31 11:37:11;;;;;;;17.02;5.25;;;6.80;99.90;;;;;;5004271;28;20067;-78
2023/01/31 11:39:38;;;;;;;17.23;5.68;;;6.80;99.90;;;;;;5004418;28;20574;-77
2023/01/31 11:42:15;;;;;;;24.35;5.43;;;6.80;99.90;;;;;;5006397;28;20052;-77
2023/01/31 11:45:18;;;;;;;17.75;5.95;;;6.80;99.90;;;;;;5005924;28;20600;-78
2023/01/31 11:48:07;;;;;;;22.13;5.97;;;6.80;99.90;;;;;;4982297;28;20057;-78
2023/01/31 11:50:37;;;;;;;15.50;5.65;;;6.80;99.90;;;;;;5001103;28;20049;-78
2023/01/31 11:53:18;;;;;;;15.27;5.72;;;6.80;99.90;;;;;;5002930;28;20088;-78
2023/01/31 11:55:46;;;;;;;22.73;6.68;;;6.80;99.90;;;;;;5005629;28;20059;-79
2023/01/31 11:58:29;;;;;;;15.52;6.30;;;6.80;99.90;;;;;;4989031;28;20113;-79
2023/01/31 12:00:54;;;;;;;23.17;6.20;;;6.80;99.90;;;;;;4996576;28;20054;-79
2023/01/31 12:03:21;;;;;;;22.52;5.63;;;6.80;99.90;;;;;;4989694;28;20054;-79
2023/01/31 12:05:50;;;;;;;17.45;6.47;;;6.80;99.90;;;;;;4984856;28;20368;-79
2023/01/31 12:08:25;;;;;;;20.10;6.53;;;6.80;99.90;;;;;;5012565;28;20129;-79
2023/01/31 12:10:51;;;;;;;19.98;5.82;;;6.80;99.90;;;;;;5014644;28;20056;-79
2023/01/31 12:13:18;;;;;;;18.55;6.78;;;6.80;99.90;;;;;;5014629;28;20042;-79
2023/01/31 12:15:57;;;;;;;22.55;6.85;;;6.80;99.90;;;;;;5014125;28;20112;-79
2023/01/31 12:18:47;;;;;;;24.67;7.47;;;6.80;99.90;;;;;;4992091;28;20046;-79
2023/01/31 12:21:13;;;;;;;23.42;6.60;;;6.80;99.90;;;;;;5009545;28;20117;-79
2023/01/31 12:24:05;;;;;;;21.67;6.25;;;6.90;99.90;;;;;;4993154;28;20052;-79
2023/01/31 12:26:47;;;;;;;22.38;6.65;;;6.90;99.90;;;;;;5007651;28;20054;-79
2023/01/31 12:29:31;;;;;;;23.70;6.30;;;6.90;99.90;;;;;;5007718;28;20042;-78
2023/01/31 12:32:00;;;;;;;21.17;5.68;;;;;;;;;;5010430;28;20056;-79
2023/01/31 12:34:38;;;;;;;20.88;6.03;;;7.00;99.90;;;;;;5008075;28;20069;-77
2023/01/31 12:37:12;;;;;;;30.40;6.85;;;7.10;99.90;;;;;;4971938;28;20046;-78
2023/01/31 12:40:09;;;;;;;21.20;5.80;;;7.00;99.90;;;;;;5001441;28;20513;-77
2023/01/31 12:42:53;;;;;;;23.88;6.18;;;7.20;99.90;;;;;;4979968;28;20056;-77
2023/01/31 12:45:56;;;;;;;16.02;5.57;;;7.20;99.90;;;;;;4997119;28;20054;-77
2023/01/31 12:48:28;;;;;;;21.35;5.88;;;;;;;;;;5014432;28;20119;-78
2023/01/31 12:51:30;;;;;;;24.40;5.28;;;7.30;99.90;;;;;;5003906;28;20042;-78
2023/01/31 12:54:24;;;;;;;25.48;4.97;;;7.30;99.90;;;;;;4997163;28;20556;-77
2023/01/31 12:56:55;;;;;;;21.48;5.43;;;7.30;99.90;;;;;;5013813;28;20046;-77
2023/01/31 12:59:54;;;;;;;19.17;4.70;;;7.40;99.90;;;;;;4993507;28;20464;-77
2023/01/31 13:02:51;;;;;;;22.13;5.25;;;7.40;99.90;;;;;;4991745;28;20080;-78
2023/01/31 13:05:40;;;;;;;20.92;4.78;;;7.40;99.90;;;;;;4985942;28;20057;-78
2023/01/31 13:08:20;;;;;;;22.58;5.45;;;7.50;99.90;;;;;;4990257;28;20053;-77
2023/01/31 13:10:50;;;;;;;21.05;4.95;;;7.60;99.90;;;;;;5012526;28;20054;-77
2023/01/31 13:13:44;;;;;;;16.50;4.35;;;7.50;99.90;;;;;;4993228;28;20054;-77
2023/01/31 13:16:38;;;;;;;19.05;4.60;;;7.70;99.90;;;;;;5000096;28;20112;-77
2023/01/31 13:19:13;;;;;;;21.52;4.35;;;;;;;;;;5010474;28;20042;-77
2023/01/31 13:21:44;;;;;;;13.02;3.58;;;7.70;99.90;;;;;;5014278;28;20428;-77
2023/01/31 13:24:16;;;;;;;19.63;4.78;;;7.70;99.90;;;;;;5012305;28;20056;-77